Date,TemperatureHighF,TemperatureAvgF,TemperatureLowF,DewpointHighF,DewpointAvgF,DewpointLowF,HumidityHigh,HumidityAvg,HumidityLow,PressureMaxIn,PressureMinIn,WindSpeedMaxMPH,WindSpeedAvgMPH,GustSpeedMaxMPH,PrecipitationSumIn
2012-4-4,65,62,56,30,27,25,35,27,22,0.00,40.00,8,5,16,0.00
2012-4-5,69,57,47,34,26,19,60,32,16,0.00,40.00,11,7,21,0.00
2012-4-6,69,55,43,33,28,20,57,36,22,0.00,40.00,9,7,24,0.00
2012-4-7,60,54,36,41,32,22,62,44,26,0.00,40.00,18,9,32,0.00
2012-4-8,70,50,32,32,25,20,74,42,17,0.00,40.00,20,6,31,0.00
2012-4-9,60,47,34,27,21,16,62,38,22,0.00,40.00,17,7,27,0.00
2012-4-10,57,42,26,23,16,12,71,39,17,0.00,40.00,12,6,21,0.00
2012-4-11,61,42,21,19,17,15,81,41,19,0.00,40.00,11,5,18,0.00
2012-4-12,50,46,44,45,32,16,85,61,29,0.00,40.00,10,7,23,0.16
2012-4-13,67,55,48,55,50,45,100,85,63,0.00,40.00,16,10,30,0.46
2012-4-14,72,57,47,58,50,-100,96,81,43,0.00,40.00,22,6,42,0.21
2012-4-15,71,60,45,62,52,37,100,80,32,0.00,40.00,22,10,38,0.36
2012-4-16,51,44,39,43,38,35,96,80,64,0.00,40.00,20,12,37,0.19
2012-4-17,74,55,38,50,43,35,92,66,38,0.00,40.00,15,6,28,0.00
2012-4-18,70,60,48,51,47,39,97,65,40,0.00,40.00,19,7,28,0.23
2012-4-19,53,46,41,45,42,38,94,87,73,0.00,40.00,17,12,29,0.25
2012-4-20,61,47,32,39,35,31,100,67,39,0.00,40.00,8,4,14,0.10
2012-4-21,69,55,44,49,37,-100,85,56,26,0.00,40.00,17,9,31,0.03
2012-4-22,61,50,40,40,38,32,93,65,36,0.00,40.00,13,10,29,0.01
2012-4-23,74,55,33,40,34,30,100,56,22,0.00,40.00,10,4,22,0.00
2012-4-24,91,68,49,52,44,36,75,45,20,0.00,40.00,5,3,10,0.00
2012-4-25,86,73,57,55,47,42,68,41,24,0.00,40.00,14,7,29,0.00
2012-4-26,71,62,51,47,39,24,74,46,25,0.00,40.00,13,8,21,0.00
2012-4-27,62,51,44,41,37,26,84,60,30,0.00,40.00,20,12,35,0.33
2012-4-28,58,48,42,47,42,-100,97,85,66,0.00,40.00,8,4,17,0.36
2012-4-29,53,48,46,47,46,45,99,91,80,0.00,40.00,6,5,16,0.01
2012-4-30,76,60,46,54,49,45,100,73,35,0.00,40.00,11,5,20,0.00
2012-5-1,86,70,57,63,59,52,96,71,40,0.00,40.00,15,8,27,0.09
2012-5-2,85,70,54,69,63,53,100,80,56,0.00,40.00,7,4,15,0.09
2012-5-3,91,77,63,69,60,50,95,63,25,0.00,40.00,9,4,16,0.00
2012-5-4,88,71,63,68,62,58,92,73,48,0.00,40.00,16,8,35,0.04
2012-5-5,81,70,63,72,65,-100,98,86,68,0.00,40.00,17,10,28,0.04
2012-5-6,80,64,50,70,58,48,94,82,66,0.00,40.00,16,9,35,0.24
2012-5-7,69,57,45,48,41,29,93,59,27,0.00,40.00,13,8,26,0.10
2012-5-8,60,52,42,43,40,35,89,65,45,0.00,40.00,14,8,31,0.00
2012-5-9,71,57,35,47,41,35,100,60,33,0.00,40.00,7,4,13,0.00
2012-5-10,89,72,54,50,46,39,63,42,23,0.00,40.00,8,6,25,0.00
2012-5-11,71,60,50,50,43,35,72,55,31,0.00,40.00,14,9,27,0.00
2012-5-12,74,59,49,45,36,-100,82,51,20,0.00,40.00,8,5,15,0.00
2012-5-13,79,61,36,41,34,27,85,43,19,0.00,40.00,7,3,17,0.00
2012-5-14,87,66,45,47,40,32,83,46,15,0.00,40.00,9,4,23,0.00
2012-5-15,80,65,50,46,39,33,70,41,19,0.00,40.00,12,6,22,0.00
2012-5-16,81,66,45,40,36,33,70,36,18,0.00,40.00,9,5,17,0.00
2012-5-17,94,77,62,50,43,34,50,32,16,0.00,40.00,15,8,34,0.00
2012-5-18,95,81,68,56,53,46,62,41,19,0.00,40.00,14,6,34,0.00
2012-5-19,79,72,59,64,58,-100,97,65,41,0.00,40.00,20,7,31,0.69
2012-5-20,70,60,51,58,49,43,96,69,37,0.00,40.00,20,7,31,0.54
2012-5-21,77,62,44,49,44,41,95,58,29,0.00,40.00,7,4,16,0.02
2012-5-22,88,73,58,54,48,42,62,42,29,0.00,40.00,15,7,28,0.00
2012-5-23,85,72,59,63,54,46,91,54,37,0.00,40.00,17,8,29,0.36
2012-5-24,71,59,50,58,55,50,100,87,49,0.00,40.00,10,6,29,1.12
2012-5-25,64,57,48,58,54,48,100,90,79,0.00,40.00,10,4,16,0.10
2012-5-26,90,73,59,74,65,56,93,76,58,0.00,40.00,13,8,25,0.03
2012-5-27,89,77,63,72,67,63,100,73,43,0.00,40.00,19,8,35,1.64
2012-5-28,74,67,58,64,56,46,100,71,38,0.00,40.00,11,6,22,2.16
2012-5-29,71,60,50,49,44,41,89,58,37,0.00,40.00,13,8,28,0.00
2012-5-30,63,51,39,51,45,39,100,82,45,0.00,40.00,9,5,17,0.19
2012-5-31,63,53,47,51,47,44,100,83,55,0.00,40.00,9,6,15,0.24
2012-6-1,67,53,41,55,48,41,100,83,43,0.00,40.00,12,4,18,0.01
2012-6-2,81,64,48,60,50,-100,100,67,30,0.00,40.00,8,5,15,0.01
2012-6-3,92,75,60,64,55,45,72,52,35,0.00,40.00,11,6,18,0.00
2012-6-4,89,76,60,63,56,47,96,56,25,0.00,40.00,9,6,16,0.00
2012-6-5,90,77,64,62,54,46,61,45,33,0.00,40.00,8,4,13,0.00
2012-6-6,89,77,66,63,60,54,82,57,37,0.00,40.00,7,5,15,0.00
2012-6-7,88,77,65,64,59,56,73,56,40,0.00,40.00,6,4,17,0.00
2012-6-8,89,77,65,61,56,53,70,51,32,0.00,40.00,15,7,26,0.00
2012-6-9,92,79,66,62,55,-100,64,47,31,0.00,40.00,12,5,28,0.00
2012-6-10,85,76,63,68,62,55,75,63,45,0.00,40.00,11,6,20,0.03
2012-6-11,79,67,55,55,49,39,92,58,27,0.00,40.00,14,8,27,0.03
2012-6-12,76,61,44,54,44,41,96,59,32,0.00,40.00,7,4,13,0.00
2012-6-13,85,70,57,59,53,49,79,57,39,0.00,40.00,11,7,22,0.12
2012-6-14,86,77,70,70,64,56,87,67,51,0.00,40.00,16,7,28,0.07
2012-6-15,81,73,64,67,62,59,90,69,50,0.00,40.00,8,4,16,0.00
2012-6-16,82,67,58,68,59,-100,100,81,32,0.00,40.00,10,5,18,0.08
2012-6-17,91,75,54,74,62,47,83,65,47,0.00,40.00,14,6,31,0.06
2012-6-18,98,85,75,76,68,63,70,57,34,0.00,40.00,10,4,16,0.00
2012-6-19,93,85,76,72,70,68,76,62,49,0.00,40.00,14,8,29,0.00
2012-6-20,74,68,60,67,63,60,100,85,71,0.00,40.00,13,6,20,0.25
2012-6-21,82,68,53,60,54,49,100,66,32,0.00,40.00,9,5,17,0.01
2012-6-22,86,73,58,61,56,53,86,59,36,0.00,40.00,10,5,16,0.00
2012-6-23,85,74,63,70,64,55,96,72,54,0.00,40.00,9,6,21,0.48
2012-6-24,88,77,66,74,69,65,95,77,60,0.00,40.00,11,7,18,0.01
2012-6-25,86,77,70,69,67,63,90,72,52,0.00,40.00,10,8,19,0.00
2012-6-26,90,78,66,71,62,53,74,60,50,0.00,40.00,11,7,19,0.00
2012-6-27,101,87,77,76,71,67,87,62,38,0.00,40.00,8,4,19,0.00
2012-6-28,93,82,74,76,69,58,98,67,39,0.00,40.00,8,6,16,0.00
2012-6-29,92,80,73,68,64,60,80,60,37,0.00,40.00,13,5,27,0.05
2012-6-30,89,80,67,72,68,63,94,68,44,0.00,40.00,13,6,23,0.02
2012-7-1,93,82,71,76,72,70,100,74,49,0.00,40.00,10,5,16,0.00
2012-7-2,96,85,75,74,70,67,84,64,42,0.00,40.00,11,5,21,0.00
2012-7-3,98,85,74,77,72,67,83,66,49,0.00,40.00,9,4,16,0.00
2012-7-4,99,87,76,75,71,67,75,60,43,0.00,40.00,8,4,19,0.00
2012-7-5,98,87,79,77,72,66,78,62,46,0.00,40.00,7,4,12,0.00
2012-7-6,102,90,80,76,70,63,77,55,28,0.00,40.00,10,5,18,0.00
2012-7-7,86,77,68,73,65,60,91,69,46,0.00,40.00,11,7,19,0.00
2012-7-8,86,76,67,63,60,53,85,60,36,0.00,40.00,9,6,19,0.00
2012-7-9,92,76,61,66,62,59,100,66,35,0.00,40.00,10,5,18,0.00
2012-7-10,89,77,58,62,56,51,90,53,28,0.00,40.00,6,4,15,0.00
2012-7-11,89,77,61,64,59,55,86,57,34,0.00,40.00,9,4,15,0.00
2012-7-12,92,80,68,68,64,59,76,59,39,0.00,40.00,8,4,17,0.00
2012-7-13,99,83,67,68,62,59,83,54,29,0.00,40.00,7,4,11,0.00
2012-7-14,99,85,71,72,68,63,90,62,32,0.00,40.00,7,4,23,0.00
2012-7-15,99,86,74,69,67,64,78,56,33,0.00,40.00,7,5,16,0.00
2012-7-16,97,86,74,69,64,61,67,52,32,0.00,40.00,12,6,21,0.00
2012-7-17,102,87,75,70,68,66,75,55,33,0.00,40.00,7,4,15,0.00
2012-7-18,98,85,75,72,69,65,85,62,36,0.00,40.00,13,6,22,0.00
2012-7-19,100,85,70,74,70,67,100,66,35,0.00,40.00,7,5,11,0.00
2012-7-20,100,85,74,73,70,66,84,63,33,0.00,40.00,7,4,16,0.00
2012-7-21,96,85,74,69,66,63,76,54,36,0.00,40.00,7,4,16,0.00
2012-7-22,103,88,74,69,65,61,82,50,26,0.00,40.00,6,4,15,0.07
2012-7-23,106,91,74,69,64,59,70,43,24,0.00,40.00,13,5,21,0.07
2012-7-24,103,91,78,69,66,62,61,45,32,0.00,40.00,11,5,20,0.00
2012-7-25,99,86,72,72,67,63,92,54,36,0.00,40.00,13,6,24,0.00
2012-7-26,94,80,65,70,60,50,100,60,24,0.00,40.00,13,6,25,0.00
2012-7-27,86,72,58,60,57,55,98,64,38,0.00,40.00,9,5,20,0.00
2012-7-28,85,73,66,65,62,59,88,71,47,0.00,40.00,10,6,21,0.07
2012-7-29,92,80,67,70,65,61,85,63,42,0.00,40.00,9,5,17,0.01
2012-7-30,103,84,69,72,66,53,100,64,20,0.00,40.00,10,5,17,0.00
2012-7-31,98,83,69,70,65,62,79,57,34,0.00,40.00,8,6,14,0.00
2012-8-1,101,83,69,67,65,62,87,57,30,0.00,40.00,19,6,35,0.00
2012-8-2,91,83,69,69,67,66,95,61,44,0.00,40.00,19,6,35,0.18
2012-8-3,100,83,70,70,66,57,84,59,30,0.00,40.00,9,6,32,0.00
2012-8-4,84,73,62,66,58,48,98,64,29,0.00,40.00,12,8,32,0.49
2012-8-5,84,70,54,58,55,53,98,63,36,0.00,40.00,6,4,14,0.21
2012-8-6,96,80,66,64,58,52,65,49,30,0.00,40.00,11,6,19,0.00
2012-8-7,96,83,66,68,64,60,88,54,34,0.00,40.00,8,5,16,0.00
2012-8-8,91,80,70,67,66,60,87,64,38,0.00,40.00,10,6,17,0.00
2012-8-9,86,73,60,64,58,49,97,64,32,0.00,40.00,12,7,21,0.00
2012-8-10,79,68,51,57,54,49,97,64,37,0.00,40.00,10,6,17,0.00
2012-8-11,79,66,52,61,54,-100,94,69,44,0.00,40.00,9,4,14,0.02
2012-8-12,75,67,60,63,60,58,98,80,63,0.00,40.00,9,6,16,0.02
2012-8-13,85,69,59,58,56,52,97,68,34,0.00,40.00,9,5,16,0.00
2012-8-14,85,72,55,62,56,52,91,61,36,0.00,40.00,12,5,19,0.00
2012-8-15,93,76,64,69,63,60,86,68,40,0.00,40.00,12,6,25,0.00
2012-8-16,77,67,56,60,49,42,86,58,29,0.00,40.00,13,9,25,0.01
2012-8-17,79,64,44,50,43,38,97,53,23,0.00,40.00,7,4,25,0.00
2012-8-18,67,58,52,56,51,45,99,80,56,0.00,40.00,9,5,18,0.40
2012-8-19,79,62,45,58,52,45,100,75,34,0.00,40.00,12,4,22,0.03
2012-8-20,83,68,53,59,54,51,98,65,34,0.00,40.00,8,4,15,0.03
2012-8-21,90,72,52,56,53,50,93,56,30,0.00,40.00,7,4,14,0.00
2012-8-22,94,80,68,63,56,52,58,46,31,0.00,40.00,16,7,28,0.00
2012-8-23,90,79,69,68,62,53,77,56,46,0.00,40.00,16,7,25,0.00
2012-8-24,86,75,67,68,66,64,91,73,50,0.00,40.00,11,5,19,0.00
2012-8-25,75,70,63,67,66,63,99,87,75,0.00,40.00,6,3,19,0.01
2012-8-26,89,73,62,68,64,57,100,78,34,0.00,40.00,6,3,11,0.01
2012-8-27,94,77,60,69,64,60,100,70,34,0.00,40.00,7,3,15,0.00
2012-8-28,97,82,71,65,63,59,78,55,31,0.00,40.00,14,6,30,0.00
2012-8-29,103,85,68,59,55,51,72,41,18,0.00,40.00,13,6,23,0.00
2012-8-30,103,86,70,63,56,52,65,40,19,0.00,40.00,14,6,23,0.00
2012-8-31,91,77,63,63,59,53,84,58,39,0.00,40.00,10,7,20,0.00
2012-9-1,96,80,65,67,59,52,73,51,34,0.00,40.00,10,4,20,0.00
2012-9-2,98,81,64,65,63,59,85,56,34,0.00,40.00,9,5,17,0.00
2012-9-3,89,77,63,66,63,61,94,65,39,0.00,40.00,5,3,13,0.00
2012-9-4,100,81,62,70,63,57,93,58,26,0.00,40.00,17,5,42,0.86
2012-9-5,82,71,62,65,53,39,99,60,23,0.00,40.00,12,7,31,0.86
2012-9-6,90,71,51,55,49,44,93,53,22,0.00,40.00,8,4,20,0.00
2012-9-7,75,66,53,58,50,42,81,58,33,0.00,40.00,11,8,22,0.00
2012-9-8,85,64,46,47,42,37,94,54,20,0.00,40.00,15,7,27,0.00
2012-9-9,79,61,41,48,44,38,99,59,29,0.00,40.00,6,4,14,0.00
2012-9-10,90,73,56,49,47,45,73,45,23,0.00,40.00,17,7,29,0.00
2012-9-11,98,79,64,51,49,46,62,38,18,0.00,40.00,15,7,29,0.00
2012-9-12,81,61,54,54,46,36,99,63,33,0.00,40.00,15,8,25,0.23
2012-9-13,78,61,47,56,48,36,100,70,23,0.00,40.00,8,3,15,0.02
2012-9-14,84,66,50,47,45,40,81,51,22,0.00,40.00,6,3,15,0.00
2012-9-15,85,68,55,52,43,38,65,44,20,0.00,40.00,11,5,27,0.00
2012-9-16,83,68,57,60,57,52,100,71,38,0.00,40.00,10,4,19,0.00
2012-9-17,68,58,45,58,44,34,94,63,31,0.00,40.00,13,8,22,0.06
2012-9-18,74,53,35,42,37,34,100,64,25,0.00,40.00,7,3,15,0.06
2012-9-19,78,64,52,48,39,28,77,45,20,0.00,40.00,18,7,29,0.00
2012-9-20,72,57,41,38,31,29,67,40,21,0.00,40.00,8,4,14,0.00
2012-9-21,72,61,49,42,37,32,69,43,23,0.00,40.00,13,6,26,0.00
2012-9-22,64,49,33,36,27,-100,71,47,22,0.00,40.00,12,6,21,0.00
2012-9-23,69,49,29,32,28,25,92,51,22,0.00,40.00,5,3,12,0.00
2012-9-24,80,62,47,45,38,30,60,43,24,0.00,40.00,10,5,16,0.00
2012-9-25,85,63,42,48,42,35,96,54,18,0.00,40.00,9,4,16,0.00
2012-9-26,76,61,43,36,30,22,64,34,14,0.00,40.00,12,6,18,0.00
2012-9-27,78,57,35,37,31,24,83,42,17,0.00,40.00,7,4,12,0.00
2012-9-28,79,56,34,39,32,22,90,48,12,0.00,40.00,5,2,13,0.00
2012-9-29,85,62,46,43,38,33,74,44,19,0.00,40.00,5,3,11,0.00
2012-9-30,84,62,46,45,41,38,79,52,22,0.00,40.00,5,2,15,0.00
2012-10-1,73,60,48,53,42,33,75,54,29,0.00,40.00,13,6,26,0.00
2012-10-2,76,56,35,35,29,22,88,46,13,0.00,40.00,9,4,17,0.00
2012-10-3,84,65,51,39,32,26,57,32,15,0.00,40.00,14,5,26,0.00
2012-10-4,55,47,36,40,33,27,73,58,37,0.00,40.00,19,12,32,0.00
2012-10-5,53,38,24,28,24,18,94,62,28,0.00,40.00,12,5,22,0.00
2012-10-6,47,34,20,27,21,15,83,61,35,0.00,40.00,10,5,21,0.00
2012-10-7,60,40,21,27,21,17,93,54,20,0.00,40.00,15,6,25,0.00
2012-10-8,74,56,39,48,32,25,79,44,18,0.00,40.00,16,6,24,0.00
2012-10-9,55,47,28,48,36,25,94,69,33,0.00,40.00,16,7,27,0.04
2012-10-10,65,46,23,29,26,22,97,55,25,0.00,40.00,14,5,24,0.04
2012-10-11,54,48,39,34,29,22,62,47,37,0.00,40.00,15,8,27,0.00
2012-10-12,59,44,26,38,23,16,78,48,19,0.00,40.00,8,5,20,0.00
2012-10-13,73,60,50,57,52,42,98,77,55,0.00,40.00,11,6,19,0.00
2012-10-14,66,55,42,53,38,32,89,56,31,0.00,40.00,14,8,26,0.00
2012-10-15,76,56,34,43,37,31,93,55,26,0.00,40.00,7,4,16,0.00
2012-10-16,76,64,52,48,45,42,81,53,34,0.00,40.00,11,6,20,0.00
2012-10-17,67,57,44,51,36,20,67,48,27,0.00,40.00,21,13,37,0.00
2012-10-18,53,45,42,43,38,21,93,80,28,0.00,40.00,21,17,36,0.66
2012-10-19,45,42,39,41,40,38,97,91,84,0.00,40.00,18,13,35,0.31
2012-10-20,64,49,34,46,40,34,100,76,46,0.00,40.00,11,5,20,0.01
2012-10-21,73,58,46,48,44,41,88,61,33,0.00,40.00,17,7,25,0.00
2012-10-22,60,54,47,53,49,45,96,83,71,0.00,40.00,17,7,24,0.00
2012-10-23,62,56,49,56,53,48,100,93,81,0.00,40.00,6,3,12,0.00
2012-10-24,54,48,45,54,47,37,100,94,68,0.00,40.00,12,7,21,0.06
2012-10-25,45,36,32,38,33,29,100,88,72,0.00,40.00,15,11,28,0.44
2012-10-26,39,35,32,30,26,23,89,70,56,0.00,40.00,9,6,19,0.02
2012-10-27,44,34,22,34,27,21,97,76,55,0.00,40.00,7,4,14,0.02
2012-10-28,53,42,34,35,31,28,95,67,45,0.00,40.00,11,6,20,0.02
2012-10-29,58,48,40,33,31,28,65,52,37,0.00,40.00,13,7,21,0.00
2012-10-30,56,44,37,32,28,23,76,56,30,0.00,40.00,9,6,16,0.00
2012-10-31,63,44,30,36,31,25,90,61,34,0.00,40.00,8,4,11,0.00
2012-11-1,54,43,37,40,34,27,100,73,44,0.00,40.00,12,6,21,0.00
2012-11-2,47,39,33,31,28,26,76,65,51,0.00,40.00,11,6,19,0.00
2012-11-3,52,39,28,35,31,26,100,77,49,0.00,40.00,5,3,10,0.00
2012-11-4,56,45,38,45,38,34,100,79,50,0.00,40.00,10,4,14,0.12
2012-11-5,42,39,37,42,37,34,100,91,78,0.00,40.00,9,6,16,0.11
2012-11-6,54,44,36,39,35,32,94,72,44,0.00,40.00,19,10,32,0.01
2012-11-7,55,41,27,35,31,26,100,72,41,0.00,40.00,9,4,14,0.00
2012-11-8,64,48,39,37,33,31,89,58,33,0.00,40.00,15,7,21,0.00
2012-11-9,61,46,33,46,40,33,100,82,52,0.00,40.00,14,9,21,0.00
2012-11-10,60,50,36,55,47,34,100,88,61,0.00,40.00,15,9,26,0.42
2012-11-11,36,25,19,34,18,13,95,74,54,0.00,40.00,16,12,27,0.42
2012-11-12,36,24,18,17,15,13,86,69,39,0.00,40.00,14,7,23,0.00
2012-11-13,51,34,23,28,22,17,86,62,38,0.00,40.00,6,4,13,0.00
2012-11-14,55,40,24,31,26,-100,96,62,34,0.00,40.00,6,3,11,0.00
2012-11-15,54,42,31,35,30,21,82,65,44,0.00,40.00,10,6,17,0.00
2012-11-16,53,36,18,34,26,16,93,68,45,0.00,40.00,8,4,15,0.00
2012-11-17,62,49,40,37,35,33,78,61,39,0.00,40.00,11,6,25,0.00
2012-11-18,63,50,40,37,33,30,66,53,35,0.00,40.00,12,5,20,0.00
2012-11-19,57,47,34,40,37,31,89,69,52,0.00,40.00,11,5,21,0.00
2012-11-20,61,43,26,37,32,26,100,71,38,0.00,40.00,6,4,13,0.00
2012-11-21,72,57,44,42,38,35,74,53,30,0.00,40.00,18,7,29,0.00
2012-11-22,57,46,34,43,36,20,89,68,57,0.00,40.00,21,10,36,0.00
2012-11-23,34,23,14,20,12,8,83,64,43,0.00,40.00,23,12,36,0.00
2012-11-24,42,30,15,23,16,11,83,58,37,0.00,40.00,10,5,19,0.00
2012-11-25,39,32,27,29,24,22,88,73,53,0.00,40.00,9,4,14,0.00
2012-11-26,30,26,12,25,20,8,86,79,67,0.00,40.00,11,5,16,0.00
2012-11-27,41,26,15,26,20,10,97,78,54,0.00,40.00,16,6,23,0.00
2012-11-28,47,31,14,28,22,13,100,74,41,0.00,40.00,10,4,19,0.00
2012-11-29,52,37,24,32,28,23,99,72,43,0.00,40.00,8,3,11,0.00
2012-11-30,45,32,20,35,28,20,99,84,61,0.00,40.00,7,3,13,0.00
2012-12-1,56,42,32,44,38,32,100,87,60,0.00,40.00,8,4,16,0.00
2012-12-2,61,42,26,44,36,26,100,81,50,0.00,40.00,9,4,19,0.00
2012-12-3,59,47,29,45,35,21,100,68,29,0.00,40.00,19,7,33,0.00
2012-12-4,53,38,26,26,23,20,79,58,32,0.00,40.00,11,5,16,0.00
2012-12-5,53,39,26,28,24,18,71,55,33,0.00,40.00,12,8,24,0.00
2012-12-6,51,43,36,38,28,-100,83,59,33,0.00,40.00,12,7,24,0.04
2012-12-7,36,32,29,31,28,24,100,85,69,0.00,40.00,9,5,15,0.01
2012-12-8,33,29,28,30,28,27,100,95,88,0.00,40.00,7,3,12,0.04
2012-12-9,35,25,9,33,22,5,97,88,82,0.00,40.00,18,11,33,0.02
2012-12-10,28,19,1,14,9,-1,92,66,51,0.00,40.00,13,4,25,0.01
2012-12-11,32,27,19,25,20,14,93,77,62,0.00,40.00,5,3,10,0.00
2012-12-12,53,38,28,19,18,16,67,47,25,0.00,40.00,18,7,27,0.00
2012-12-13,37,32,19,22,20,17,93,62,46,0.00,40.00,10,5,16,0.00
2012-12-14,49,36,19,38,27,17,100,73,45,0.00,40.00,9,5,16,0.02
2012-12-15,45,38,29,43,37,27,100,98,77,0.00,40.00,14,7,20,0.77
2012-12-16,29,26,24,27,24,22,100,92,85,0.00,40.00,9,5,19,0.01
2012-12-17,29,27,26,28,27,25,100,98,92,0.00,40.00,7,3,13,0.00
2012-12-18,37,29,24,32,28,24,100,97,80,0.00,40.00,9,5,14,0.01
2012-12-19,38,30,22,31,27,22,100,90,70,0.00,40.00,17,6,24,0.01
2012-12-20,22,17,8,22,15,8,100,90,77,0.00,40.00,19,12,27,0.00
2012-12-21,30,16,4,19,11,3,100,85,63,0.00,40.00,6,3,11,0.00
2012-12-22,31,22,13,23,18,10,95,85,69,0.00,40.00,8,5,16,0.00
2012-12-23,20,13,7,15,10,5,98,88,73,0.00,40.00,8,4,12,0.00
2012-12-24,17,11,3,13,7,-1,93,84,74,0.00,40.00,13,8,22,0.00
2012-12-25,11,5,-1,5,1,-4,90,82,74,0.00,40.00,9,6,16,0.00
2012-12-26,19,8,-2,10,4,-4,95,82,63,0.00,40.00,6,3,10,0.00
2012-12-27,21,17,12,19,16,9,95,92,84,0.00,40.00,9,6,16,0.00
2012-12-28,21,17,9,19,15,8,99,93,83,0.00,40.00,10,7,14,0.00
2012-12-29,22,9,-4,16,7,-5,100,91,68,0.00,40.00,7,3,12,0.00
2012-12-30,33,20,8,24,16,6,100,84,64,0.00,40.00,14,7,19,0.07
2012-12-31,23,16,3,18,12,0,96,83,67,0.00,40.00,12,7,19,0.01
2013-1-1,22,14,3,19,11,1,98,86,76,0.00,40.00,12,4,18,0.00